Time;durP1;ratioP1;P1;durP2;ratioP2;P2;SDS_P1;SDS_P2;PMS_P1;PMS_P2;Temp;Humidity;BMP_temperature;BMP_pressure;BME280_temperature;BME280_humidity;BME280_pressure;Samples;Min_cycle;Max_cycle;Signal;HPM_P1;HPM_P2
2022/08/04 00:01:42;;;;;;;8.00;6.13;;;20.50;99.90;;;;;;4961098;28;91193;-30
2022/08/04 00:04:11;;;;;;;11.50;6.65;;;20.50;99.90;;;;;;4949365;28;89868;-33
2022/08/04 00:06:44;;;;;;;11.50;6.07;;;20.50;99.90;;;;;;4961064;28;87729;-34
2022/08/04 00:09:21;;;;;;;13.60;7.72;;;20.50;99.90;;;;;;4961290;28;89328;-32
2022/08/04 00:11:49;;;;;;;8.15;6.78;;;20.50;99.90;;;;;;4961076;28;89957;-32
2022/08/04 00:14:15;;;;;;;11.50;7.20;;;20.40;99.90;;;;;;4960565;28;89748;-32
2022/08/04 00:19:28;;;;;;;8.63;6.93;;;20.40;99.90;;;;;;4958973;28;89174;-34
2022/08/04 00:22:01;;;;;;;11.57;7.25;;;20.50;99.90;;;;;;4960898;28;91576;-33
2022/08/04 00:24:29;;;;;;;12.50;7.72;;;20.40;99.90;;;;;;4961048;28;88692;-31
2022/08/04 00:26:55;;;;;;;9.98;7.22;;;20.40;99.90;;;;;;4961546;28;89086;-34
2022/08/04 00:29:21;;;;;;;10.57;6.85;;;20.40;99.90;;;;;;4960928;28;88361;-32
2022/08/04 00:31:48;;;;;;;8.35;6.43;;;20.40;99.90;;;;;;4961870;28;91018;-32
2022/08/04 00:34:14;;;;;;;11.50;7.60;;;20.40;99.90;;;;;;4960456;28;89324;-31
2022/08/04 00:36:42;;;;;;;17.75;7.28;;;20.40;99.90;;;;;;4960935;28;89039;-34
2022/08/04 00:39:12;;;;;;;12.13;7.80;;;20.30;99.90;;;;;;4960609;28;88968;-35
2022/08/04 00:41:43;;;;;;;13.07;7.63;;;20.40;99.90;;;;;;4961006;28;90348;-33
2022/08/04 00:44:29;;;;;;;12.38;6.75;;;20.40;99.90;;;;;;4960289;28;90071;-38
2022/08/04 00:47:34;;;;;;;10.65;8.00;;;20.30;99.90;;;;;;4948373;28;88731;-31
2022/08/04 00:50:04;;;;;;;10.48;6.70;;;20.30;99.90;;;;;;4932929;28;90311;-31
2022/08/04 00:52:53;;;;;;;10.85;7.45;;;20.30;99.90;;;;;;4960823;28;88673;-34
2022/08/04 00:55:27;;;;;;;16.23;8.18;;;20.30;99.90;;;;;;4960946;28;90084;-30
2022/08/04 00:58:19;;;;;;;13.38;7.15;;;20.30;99.90;;;;;;4960274;28;88423;-34
2022/08/04 01:00:58;;;;;;;12.95;7.53;;;20.30;99.90;;;;;;4950363;28;87466;-34
2022/08/04 01:03:49;;;;;;;15.77;7.63;;;20.30;99.90;;;;;;4960268;28;90770;-30
2022/08/04 01:06:35;;;;;;;12.43;7.43;;;20.20;99.90;;;;;;4960846;28;90036;-33
2022/08/04 01:09:25;;;;;;;14.00;8.15;;;20.20;99.90;;;;;;4948364;28;87754;-32
2022/08/04 01:12:07;;;;;;;14.15;7.70;;;20.30;99.90;;;;;;4960608;28;89523;-31
2022/08/04 01:15:10;;;;;;;11.93;8.48;;;20.30;99.90;;;;;;4945889;28;90333;-31
2022/08/04 01:17:42;;;;;;;9.50;7.82;;;20.20;99.90;;;;;;4959769;28;89822;-32
2022/08/04 01:20:10;;;;;;;15.82;7.82;;;20.20;99.90;;;;;;4960858;28;87733;-34
2022/08/04 01:22:54;;;;;;;11.93;9.10;;;20.10;99.90;;;;;;4959924;28;87690;-34
2022/08/04 01:25:19;;;;;;;11.05;8.05;;;20.10;99.90;;;;;;4942004;28;90235;-34
2022/08/04 01:28:13;;;;;;;10.10;7.50;;;20.10;99.90;;;;;;4959971;28;89916;-35
2022/08/04 01:30:41;;;;;;;11.23;7.53;;;20.10;99.90;;;;;;4960893;28;89445;-32
2022/08/04 01:33:13;;;;;;;21.50;8.13;;;20.10;99.90;;;;;;4960438;28;88942;-33
2022/08/04 01:35:47;;;;;;;12.48;7.78;;;20.00;99.90;;;;;;4960242;28;90081;-31
2022/08/04 01:38:32;;;;;;;9.68;7.68;;;20.00;99.90;;;;;;4957206;28;90013;-32
2022/08/04 01:41:06;;;;;;;10.60;7.82;;;20.00;99.90;;;;;;4960892;28;89489;-32
2022/08/04 01:43:35;;;;;;;10.85;7.82;;;20.00;99.90;;;;;;4959021;28;88697;-33
2022/08/04 01:46:02;;;;;;;;;;;20.00;99.90;;;;;;4960570;28;90460;-34
2022/08/04 01:48:28;;;;;;;16.40;9.18;;;20.00;99.90;;;;;;4961068;28;89698;-33
2022/08/04 01:51:01;;;;;;;15.57;8.60;;;19.90;99.90;;;;;;4960403;28;89322;-33
2022/08/04 01:53:41;;;;;;;12.18;8.50;;;19.90;99.90;;;;;;4960253;28;88528;-33
2022/08/04 01:56:09;;;;;;;12.00;8.35;;;19.80;99.90;;;;;;4960523;28;88724;-32
2022/08/04 01:58:36;;;;;;;13.70;8.60;;;19.80;99.90;;;;;;4962379;28;89946;-33
2022/08/04 02:01:08;;;;;;;14.73;7.35;;;19.80;99.90;;;;;;4963540;28;89757;-32
2022/08/04 02:03:40;;;;;;;10.02;8.15;;;19.80;99.90;;;;;;4964135;28;89227;-35
2022/08/04 02:06:21;;;;;;;9.60;7.93;;;19.80;99.90;;;;;;4963388;28;90355;-32
2022/08/04 02:08:57;;;;;;;12.95;6.85;;;19.80;99.90;;;;;;4963156;28;89751;-33
2022/08/04 02:11:23;;;;;;;13.52;7.95;;;19.80;99.90;;;;;;4964100;28;89024;-32
2022/08/04 02:13:57;;;;;;;16.83;8.65;;;19.70;99.90;;;;;;4963203;28;89914;-33
2022/08/04 02:16:40;;;;;;;8.30;7.07;;;19.70;99.90;;;;;;4962896;28;91014;-32
2022/08/04 02:19:23;;;;;;;9.70;7.22;;;19.80;99.90;;;;;;4962707;28;90025;-33
2022/08/04 02:22:01;;;;;;;11.68;7.88;;;19.70;99.90;;;;;;4963855;28;88034;-35
2022/08/04 02:24:29;;;;;;;11.80;7.20;;;19.70;99.90;;;;;;4963104;28;89179;-35
2022/08/04 02:26:56;;;;;;;10.57;8.43;;;19.70;99.90;;;;;;4962903;28;90185;-36
2022/08/04 02:29:38;;;;;;;9.25;7.35;;;19.60;99.90;;;;;;4962505;28;89827;-34
2022/08/04 02:32:08;;;;;;;9.60;7.53;;;19.60;99.90;;;;;;4963959;28;89278;-31
2022/08/04 02:34:53;;;;;;;15.25;6.97;;;19.60;99.90;;;;;;4963131;28;88190;-33
2022/08/04 02:37:20;;;;;;;10.80;8.25;;;19.60;99.90;;;;;;4962450;28;90082;-30
2022/08/04 02:39:51;;;;;;;13.90;7.28;;;19.60;99.90;;;;;;4963260;28;89584;-32
2022/08/04 02:42:17;;;;;;;10.48;7.20;;;19.50;99.90;;;;;;4962037;28;87570;-34
2022/08/04 02:44:49;;;;;;;10.60;6.72;;;19.60;99.90;;;;;;4962930;28;89585;-34
2022/08/04 02:47:18;;;;;;;10.90;6.93;;;19.60;99.90;;;;;;4962805;28;89631;-31
2022/08/04 02:49:45;;;;;;;11.63;6.55;;;19.50;99.90;;;;;;4962055;28;89561;-31
2022/08/04 02:52:13;;;;;;;7.28;6.47;;;19.50;99.90;;;;;;4960979;28;87594;-32
2022/08/04 02:54:41;;;;;;;9.65;7.57;;;19.50;99.90;;;;;;4962751;28;88298;-31
2022/08/04 02:57:10;;;;;;;12.27;7.05;;;19.50;99.90;;;;;;4962687;28;89886;-35
2022/08/04 02:59:50;;;;;;;12.80;7.32;;;19.40;99.90;;;;;;4961650;28;89282;-34
2022/08/04 03:02:33;;;;;;;11.00;7.53;;;19.40;99.90;;;;;;4962151;28;88263;-34
2022/08/04 03:05:21;;;;;;;10.25;6.63;;;19.40;99.90;;;;;;4962551;28;89964;-31
2022/08/04 03:07:57;;;;;;;14.10;7.38;;;19.40;99.90;;;;;;4962203;28;90388;-33
2022/08/04 03:11:02;;;;;;;8.40;6.43;;;19.40;99.90;;;;;;4962113;28;89751;-33
2022/08/04 03:13:58;;;;;;;10.57;7.00;;;19.40;99.90;;;;;;4960157;28;89028;-31
2022/08/04 03:16:39;;;;;;;8.82;6.25;;;19.30;99.90;;;;;;4961917;28;87567;-34
2022/08/04 03:19:25;;;;;;;12.75;6.65;;;19.30;99.90;;;;;;4961640;28;90886;-32
2022/08/04 03:22:10;;;;;;;10.45;6.63;;;19.30;99.90;;;;;;4961628;28;89183;-33
2022/08/04 03:25:09;;;;;;;16.48;7.50;;;19.20;99.90;;;;;;4961783;28;88108;-32
2022/08/04 03:27:34;;;;;;;15.55;7.88;;;19.30;99.90;;;;;;4951317;28;88497;-31
2022/08/04 03:30:31;;;;;;;14.75;7.35;;;19.20;99.90;;;;;;4962158;28;90479;-33
2022/08/04 03:33:34;;;;;;;13.00;7.82;;;19.20;99.90;;;;;;4958405;28;90364;-32
2022/08/04 03:36:37;;;;;;;10.02;6.68;;;19.30;99.90;;;;;;4950280;28;88306;-34
2022/08/04 03:39:20;;;;;;;16.35;7.80;;;19.30;99.90;;;;;;4961607;28;87963;-32
2022/08/04 03:42:22;;;;;;;10.32;7.60;;;19.20;99.90;;;;;;4962398;28;91474;-32
2022/08/04 03:45:20;;;;;;;15.05;7.82;;;19.20;99.90;;;;;;4952315;28;89641;-33
2022/08/04 03:48:22;;;;;;;15.02;6.65;;;19.20;99.90;;;;;;4961605;28;87645;-30
2022/08/04 03:54:41;;;;;;;9.63;7.53;;;19.20;99.90;;;;;;4954962;28;90215;-33
2022/08/04 03:57:31;;;;;;;11.38;7.63;;;19.20;99.90;;;;;;4951902;28;91084;-32
2022/08/04 04:00:11;;;;;;;10.75;8.32;;;19.20;99.90;;;;;;4961358;28;88687;-32
2022/08/04 04:03:05;;;;;;;10.15;7.30;;;19.10;99.90;;;;;;4961641;28;88533;-30
2022/08/04 04:05:59;;;;;;;10.50;7.28;;;19.10;99.90;;;;;;4950235;28;89564;-33
2022/08/04 04:08:37;;;;;;;12.20;9.07;;;19.20;99.90;;;;;;4961187;28;90064;-32
2022/08/04 04:11:09;;;;;;;13.57;8.15;;;19.10;99.90;;;;;;4961219;28;89217;-34
2022/08/04 04:13:47;;;;;;;14.35;7.47;;;19.10;99.90;;;;;;4961650;28;89241;-31
2022/08/04 04:16:37;;;;;;;13.75;8.82;;;19.10;99.90;;;;;;4961660;28;89158;-35
2022/08/04 04:19:24;;;;;;;11.10;7.05;;;19.10;99.90;;;;;;4949548;28;89725;-33
2022/08/04 04:21:55;;;;;;;15.18;7.65;;;19.10;99.90;;;;;;4960584;28;88849;-33
2022/08/04 04:24:21;;;;;;;14.07;7.90;;;19.20;99.90;;;;;;4960689;28;88071;-31
2022/08/04 04:27:20;;;;;;;16.92;6.93;;;19.20;99.90;;;;;;4961236;28;90414;-33
2022/08/04 04:29:49;;;;;;;13.25;7.53;;;19.20;99.90;;;;;;4961464;28;89623;-35
2022/08/04 04:32:28;;;;;;;19.48;7.75;;;19.20;99.90;;;;;;4961144;28;89073;-33
2022/08/04 04:35:03;;;;;;;15.80;8.07;;;19.20;99.90;;;;;;4961134;28;90807;-34
2022/08/04 04:37:59;;;;;;;12.80;7.18;;;19.30;99.90;;;;;;4960641;28;90550;-32
2022/08/04 04:41:04;;;;;;;13.77;7.18;;;19.30;99.90;;;;;;4922867;28;88995;-33
2022/08/04 04:44:04;;;;;;;12.07;7.57;;;19.30;99.90;;;;;;4906915;28;87667;-34
2022/08/04 04:46:44;;;;;;;16.15;8.77;;;19.40;99.90;;;;;;4946903;28;88728;-34
2022/08/04 04:49:27;;;;;;;13.52;8.15;;;19.30;99.90;;;;;;4960413;28;91485;-34
2022/08/04 04:52:11;;;;;;;9.43;7.13;;;19.40;99.90;;;;;;4961327;28;89478;-32
2022/08/04 04:54:38;;;;;;;15.40;7.20;;;19.50;99.90;;;;;;4961305;28;87555;-33
2022/08/04 04:57:14;;;;;;;8.05;5.97;;;19.60;99.90;;;;;;4960420;28;87611;-33
2022/08/04 04:59:55;;;;;;;13.77;5.55;;;19.70;99.90;;;;;;4960545;28;89483;-32
2022/08/04 05:02:26;;;;;;;11.45;7.68;;;19.80;99.90;;;;;;4960323;28;90020;-34
2022/08/04 05:05:01;;;;;;;11.20;7.05;;;19.90;99.90;;;;;;4960544;28;88123;-33
2022/08/04 05:07:41;;;;;;;10.35;7.32;;;20.00;99.90;;;;;;4961534;28;88899;-32
2022/08/04 05:10:41;;;;;;;10.43;6.63;;;20.10;99.90;;;;;;4960399;28;90207;-31
2022/08/04 05:13:28;;;;;;;9.18;6.60;;;20.10;99.90;;;;;;4925132;28;89863;-35
2022/08/04 05:16:07;;;;;;;11.00;6.83;;;20.10;99.90;;;;;;4961228;28;88423;-35
2022/08/04 05:18:37;;;;;;;15.00;7.20;;;20.10;99.90;;;;;;4960746;28;88357;-34
2022/08/04 05:21:22;;;;;;;8.40;5.82;;;20.20;99.90;;;;;;4958757;28;90601;-34
2022/08/04 05:23:53;;;;;;;11.07;6.35;;;20.30;99.90;;;;;;4960167;28;91339;-32
2022/08/04 05:26:23;;;;;;;12.82;8.00;;;20.50;99.90;;;;;;4960415;28;88369;-33
2022/08/04 05:28:56;;;;;;;8.93;6.35;;;20.60;99.90;;;;;;4959513;28;89672;-35
2022/08/04 05:31:39;;;;;;;14.60;6.97;;;20.70;99.90;;;;;;4960749;28;90239;-33
2022/08/04 05:34:12;;;;;;;10.75;5.45;;;20.90;99.90;;;;;;4962939;28;89571;-32
2022/08/04 05:36:45;;;;;;;8.00;6.72;;;21.00;99.90;;;;;;4963493;28;89381;-33
2022/08/04 05:39:17;;;;;;;12.73;7.15;;;21.00;99.90;;;;;;4961766;28;87559;-34
2022/08/04 05:41:44;;;;;;;11.05;6.60;;;21.10;99.90;;;;;;4965070;28;89911;-32
2022/08/04 05:44:10;;;;;;;9.55;5.88;;;21.10;99.90;;;;;;4963823;28;89525;-33
2022/08/04 05:46:37;;;;;;;13.25;6.43;;;21.10;99.90;;;;;;4963450;28;88615;-34
2022/08/04 05:49:03;;;;;;;11.98;6.70;;;21.10;99.90;;;;;;4962658;28;89973;-34
2022/08/04 05:51:30;;;;;;;8.05;5.80;;;21.10;99.90;;;;;;4962807;28;90395;-35
2022/08/04 05:53:58;;;;;;;10.43;6.53;;;21.10;99.90;;;;;;4963467;28;89867;-34
2022/08/04 05:56:24;;;;;;;15.18;6.90;;;21.20;99.90;;;;;;4963368;28;90243;-32
2022/08/04 05:58:51;;;;;;;15.25;6.32;;;21.30;99.90;;;;;;4963564;28;87958;-33
2022/08/04 06:01:19;;;;;;;9.00;5.80;;;21.40;99.90;;;;;;4965562;28;91299;-31
2022/08/04 06:03:47;;;;;;;10.20;4.65;;;21.50;99.90;;;;;;4964127;28;89745;-34
2022/08/04 06:06:16;;;;;;;10.10;5.55;;;21.60;99.90;;;;;;4964366;28;89252;-31
2022/08/04 06:08:42;;;;;;;10.70;3.95;;;21.60;99.90;;;;;;4965346;28;87667;-32
2022/08/04 06:11:10;;;;;;;8.27;4.75;;;21.60;99.90;;;;;;4963045;28;89777;-33
2022/08/04 06:13:43;;;;;;;7.97;4.65;;;21.50;99.90;;;;;;4960867;28;90896;-33
2022/08/04 06:16:12;;;;;;;7.18;3.97;;;21.50;99.90;;;;;;4963103;28;89133;-35
2022/08/04 06:18:39;;;;;;;6.55;5.18;;;21.50;99.90;;;;;;4962778;28;90094;-31
2022/08/04 06:21:08;;;;;;;15.93;4.90;;;21.50;99.90;;;;;;4962851;28;92024;-31
2022/08/04 06:23:38;;;;;;;9.13;4.60;;;21.60;99.90;;;;;;4962805;28;90409;-34
2022/08/04 06:26:05;;;;;;;8.13;4.35;;;21.60;99.90;;;;;;4962854;28;89708;-33
2022/08/04 06:28:32;;;;;;;8.82;4.65;;;21.70;99.90;;;;;;4962171;28;89538;-34
2022/08/04 06:31:02;;;;;;;11.07;4.93;;;21.80;99.90;;;;;;4963313;28;90302;-32
2022/08/04 06:33:33;;;;;;;6.45;5.78;;;21.90;99.90;;;;;;4960535;28;89327;-32
2022/08/04 06:36:01;;;;;;;8.25;4.72;;;22.10;99.90;;;;;;4962913;28;89581;-31
2022/08/04 06:38:29;;;;;;;8.25;5.10;;;22.30;99.90;;;;;;4961627;28;88752;-31
2022/08/04 06:41:00;;;;;;;5.20;4.60;;;22.50;99.90;;;;;;4957815;28;89752;-33
2022/08/04 06:43:27;;;;;;;12.85;5.22;;;22.70;99.90;;;;;;4957687;28;90241;-32
2022/08/04 06:45:56;;;;;;;6.45;5.13;;;22.90;99.90;;;;;;4959459;28;90989;-33
2022/08/04 06:48:22;;;;;;;12.95;5.78;;;23.10;99.90;;;;;;4958819;28;88618;-32
2022/08/04 06:50:49;;;;;;;9.25;4.13;;;23.20;99.90;;;;;;4958644;28;90363;-35
2022/08/04 06:53:16;;;;;;;13.20;4.72;;;23.30;99.90;;;;;;4957853;28;89784;-32
2022/08/04 06:55:44;;;;;;;13.57;5.03;;;23.40;99.90;;;;;;4958411;28;89946;-34
2022/08/04 06:58:11;;;;;;;8.93;5.65;;;23.60;99.90;;;;;;4958974;28;89454;-31
2022/08/04 07:00:39;;;;;;;9.30;4.55;;;23.60;99.90;;;;;;4959605;28;90644;-32
2022/08/04 07:03:06;;;;;;;5.90;4.35;;;23.70;99.90;;;;;;4959341;28;90410;-34
2022/08/04 07:05:32;;;;;;;10.82;5.38;;;23.70;99.90;;;;;;4958556;28;89471;-33
2022/08/04 07:07:58;;;;;;;8.07;3.88;;;23.70;99.90;;;;;;4959503;28;89575;-35
2022/08/04 07:10:26;;;;;;;9.85;4.05;;;23.80;99.90;;;;;;4959237;28;90131;-34
2022/08/04 07:12:52;;;;;;;8.63;5.35;;;24.00;99.90;;;;;;4959755;28;89551;-34
2022/08/04 07:15:19;;;;;;;11.25;5.10;;;24.10;99.90;;;;;;4960023;28;89408;-34
2022/08/04 07:17:46;;;;;;;11.57;4.43;;;24.30;99.90;;;;;;4960477;28;88726;-36
2022/08/04 07:20:11;;;;;;;13.57;5.88;;;24.40;99.90;;;;;;4961196;28;90875;-34
2022/08/04 07:22:39;;;;;;;5.10;4.07;;;24.40;99.90;;;;;;4962632;28;89676;-33
2022/08/04 07:25:09;;;;;;;12.30;5.72;;;24.50;99.90;;;;;;4961159;28;89734;-32
2022/08/04 07:27:35;;;;;;;11.00;5.28;;;24.70;99.90;;;;;;4961360;28;89146;-34
2022/08/04 07:30:04;;;;;;;9.02;4.57;;;24.80;99.90;;;;;;4962552;28;89991;-33
2022/08/04 07:32:31;;;;;;;10.35;5.53;;;25.00;99.90;;;;;;4965671;28;90750;-34
2022/08/04 07:34:57;;;;;;;9.73;5.63;;;25.10;99.90;;;;;;4957953;28;92335;-31
2022/08/04 07:37:23;;;;;;;9.38;5.10;;;25.20;99.90;;;;;;4958131;28;89246;-32
2022/08/04 07:39:49;;;;;;;6.05;4.35;;;25.30;99.90;;;;;;4957339;28;90302;-33
2022/08/04 07:42:18;;;;;;;8.25;4.20;;;25.30;99.90;;;;;;4957836;28;89846;-33
2022/08/04 07:44:45;;;;;;;9.07;4.93;;;25.40;99.90;;;;;;4957527;28;89495;-36
2022/08/04 07:47:11;;;;;;;5.60;4.17;;;25.50;99.90;;;;;;4959129;28;89978;-33
2022/08/04 07:49:37;;;;;;;15.82;5.05;;;25.60;99.90;;;;;;4957761;28;90311;-34
2022/08/04 07:52:03;;;;;;;14.35;4.78;;;25.60;99.90;;;;;;4959086;28;89563;-34
2022/08/04 07:54:29;;;;;;;9.00;5.00;;;25.70;99.90;;;;;;4958315;28;89753;-33
2022/08/04 07:56:56;;;;;;;9.35;4.43;;;25.80;99.90;;;;;;4957362;28;88779;-32
2022/08/04 07:59:21;;;;;;;6.88;3.95;;;25.80;99.90;;;;;;4957892;28;90260;-34
2022/08/04 08:01:47;;;;;;;11.93;4.55;;;25.80;99.90;;;;;;4958543;28;89431;-32
2022/08/04 08:04:14;;;;;;;11.07;5.65;;;25.90;99.90;;;;;;4957511;28;89828;-32
2022/08/04 08:06:41;;;;;;;5.97;5.37;;;26.00;99.90;;;;;;4960705;28;89511;-33
2022/08/04 08:09:20;;;;;;;8.13;5.63;;;26.10;99.90;;;;;;4957498;28;90204;-35
2022/08/04 08:11:47;;;;;;;7.32;4.68;;;26.30;99.90;;;;;;4957459;28;89707;-35
2022/08/04 08:14:12;;;;;;;44.10;9.80;;;26.30;99.90;;;;;;4957625;28;89216;-33
2022/08/04 08:16:38;;;;;;;11.07;4.05;;;26.50;99.90;;;;;;4958897;28;88758;-34
2022/08/04 08:19:04;;;;;;;11.40;5.00;;;26.60;99.90;;;;;;4957613;28;90933;-35
2022/08/04 08:21:30;;;;;;;7.40;4.50;;;26.60;99.90;;;;;;4957486;28;92772;-34
2022/08/04 08:23:57;;;;;;;7.15;4.30;;;26.60;99.90;;;;;;4957592;28;91911;-33
2022/08/04 08:26:22;;;;;;;7.28;4.75;;;26.50;99.90;;;;;;4957638;28;89599;-32
2022/08/04 08:28:48;;;;;;;5.75;3.80;;;26.50;99.90;;;;;;4957482;28;91737;-34
2022/08/04 08:31:14;;;;;;;8.32;4.85;;;26.50;99.90;;;;;;4957359;28;90932;-35
2022/08/04 08:33:40;;;;;;;10.60;4.38;;;26.50;99.90;;;;;;4957538;28;89481;-36
2022/08/04 08:36:08;;;;;;;4.38;3.97;;;26.60;99.90;;;;;;4958207;28;88272;-32
2022/08/04 08:39:05;;;;;;;10.43;4.68;;;26.70;99.90;;;;;;4957944;28;90643;-34
2022/08/04 08:41:56;;;;;;;6.70;3.80;;;26.90;99.90;;;;;;4956205;28;89753;-32
2022/08/04 08:44:37;;;;;;;6.82;3.42;;;27.00;99.90;;;;;;4948673;28;89351;-31
2022/08/04 08:47:53;;;;;;;6.80;3.17;;;27.20;99.90;;;;;;4952317;28;90642;-33
2022/08/04 08:50:43;;;;;;;13.73;5.35;;;27.50;99.90;;;;;;4935398;28;89955;-35
2022/08/04 08:53:37;;;;;;;6.25;4.75;;;27.70;99.90;;;;;;4957157;28;90631;-32
2022/08/04 08:56:25;;;;;;;6.82;4.25;;;27.70;99.90;;;;;;4956643;28;91156;-32
2022/08/04 08:59:14;;;;;;;8.77;4.10;;;27.70;99.90;;;;;;4956725;28;89214;-33
2022/08/04 09:02:32;;;;;;;11.40;3.75;;;27.70;99.90;;;;;;4956574;28;90129;-35
2022/08/04 09:05:06;;;;;;;5.45;3.95;;;27.70;99.90;;;;;;4885016;28;89900;-33
2022/08/04 09:07:45;;;;;;;5.85;3.25;;;27.80;99.90;;;;;;4952816;28;89317;-34
2022/08/04 09:10:23;;;;;;;9.18;3.45;;;28.00;99.90;;;;;;4956170;28;88379;-35
2022/08/04 09:12:55;;;;;;;7.13;3.25;;;28.20;99.90;;;;;;4956071;28;90313;-33
2022/08/04 09:15:48;;;;;;;11.93;3.40;;;28.40;99.90;;;;;;4955520;28;92406;-34
2022/08/04 09:18:41;;;;;;;7.32;3.67;;;28.40;99.90;;;;;;4956716;28;90483;-34
2022/08/04 09:21:15;;;;;;;5.55;4.40;;;28.50;99.90;;;;;;4956498;28;88989;-33
2022/08/04 09:23:58;;;;;;;5.72;3.42;;;28.60;99.90;;;;;;4956881;28;90879;-34
2022/08/04 09:26:56;;;;;;;7.72;3.65;;;28.70;99.90;;;;;;4956143;28;89879;-36
2022/08/04 09:29:55;;;;;;;6.13;3.47;;;28.80;99.90;;;;;;4946127;28;89456;-33
2022/08/04 09:32:58;;;;;;;8.32;3.90;;;28.80;99.90;;;;;;4947404;28;87630;-34
2022/08/04 09:36:01;;;;;;;8.07;4.45;;;29.00;99.90;;;;;;4956331;28;90198;-35
2022/08/04 09:38:49;;;;;;;7.90;3.75;;;29.30;99.90;;;;;;4956938;28;89746;-32
2022/08/04 09:41:52;;;;;;;10.25;3.95;;;29.40;99.90;;;;;;4956888;28;89551;-32
2022/08/04 09:44:24;;;;;;;6.00;3.05;;;29.60;99.90;;;;;;4946710;28;89146;-33
2022/08/04 09:47:24;;;;;;;5.00;3.75;;;29.70;99.90;;;;;;4957670;28;90226;-34
2022/08/04 09:50:02;;;;;;;5.70;4.22;;;29.80;99.90;;;;;;4952962;28;90019;-32
2022/08/04 09:52:51;;;;;;;4.80;3.45;;;29.80;99.90;;;;;;4957510;28;89550;-34
2022/08/04 09:55:39;;;;;;;12.70;3.67;;;29.90;99.90;;;;;;4957576;28;87736;-35
2022/08/04 09:58:21;;;;;;;8.80;3.42;;;29.90;99.90;;;;;;4957521;28;90413;-34
2022/08/04 10:01:01;;;;;;;7.20;3.83;;;29.90;99.90;;;;;;4957033;28;90220;-34
2022/08/04 10:03:33;;;;;;;11.13;3.55;;;30.00;99.90;;;;;;4956428;28;88991;-33
2022/08/04 10:06:34;;;;;;;5.80;3.25;;;30.30;99.90;;;;;;4957302;28;89961;-32
2022/08/04 10:09:11;;;;;;;8.48;3.33;;;30.40;99.00;;;;;;4947666;28;90216;-33
2022/08/04 10:11:40;;;;;;;4.22;3.30;;;30.50;97.70;;;;;;4956323;28;90962;-33
2022/08/04 10:14:31;;;;;;;7.65;3.45;;;30.40;97.90;;;;;;4959878;28;90382;-32
2022/08/04 10:17:06;;;;;;;8.70;3.17;;;30.30;96.00;;;;;;4929784;28;89609;-33
2022/08/04 10:19:36;;;;;;;6.22;3.08;;;30.20;94.40;;;;;;4963357;28;90641;-34
2022/08/04 10:22:05;;;;;;;5.60;3.33;;;30.10;96.70;;;;;;4973678;28;90784;-34
2022/08/04 10:25:01;;;;;;;4.43;3.25;;;30.00;97.10;;;;;;4975437;28;89771;-31
2022/08/04 10:27:35;;;;;;;4.72;3.50;;;29.90;99.30;;;;;;4966972;28;87987;-34
2022/08/04 10:30:13;;;;;;;7.00;3.53;;;29.90;99.90;;;;;;4962341;28;89874;-34
2022/08/04 10:32:51;;;;;;;6.57;3.78;;;29.90;98.40;;;;;;4961865;28;89730;-34
2022/08/04 10:35:22;;;;;;;7.60;3.55;;;29.80;99.20;;;;;;4966514;28;90527;-33
2022/08/04 10:38:19;;;;;;;7.40;4.03;;;29.70;99.90;;;;;;4975647;28;88092;-32
2022/08/04 10:40:53;;;;;;;5.22;3.55;;;29.70;99.90;;;;;;4971825;28;90360;-33
2022/08/04 10:43:32;;;;;;;5.18;3.78;;;29.60;99.90;;;;;;4975246;28;89960;-31
2022/08/04 10:46:09;;;;;;;5.88;3.67;;;29.60;99.90;;;;;;4961123;28;89767;-35
2022/08/04 10:48:58;;;;;;;9.50;4.17;;;29.50;99.90;;;;;;4962390;28;88888;-32
2022/08/04 10:51:51;;;;;;;6.88;3.22;;;29.60;99.90;;;;;;4961452;28;89518;-35
2022/08/04 10:54:46;;;;;;;6.90;4.55;;;29.60;99.90;;;;;;4961143;28;89930;-32
2022/08/04 10:57:36;;;;;;;7.43;4.03;;;29.50;99.90;;;;;;4958389;28;88737;-34
2022/08/04 11:00:23;;;;;;;8.55;4.15;;;29.40;99.90;;;;;;4961652;28;89686;-31
2022/08/04 11:03:21;;;;;;;;;;;29.30;99.90;;;;;;4961493;28;89145;-34
2022/08/04 11:05:54;;;;;;;3.95;3.42;;;29.20;99.90;;;;;;4928379;28;90818;-34
2022/08/04 11:08:27;;;;;;;7.72;4.38;;;29.30;99.90;;;;;;4962359;28;90715;-32
2022/08/04 11:11:00;;;;;;;7.35;4.57;;;29.40;99.90;;;;;;4961370;28;89685;-38
2022/08/04 11:13:32;;;;;;;7.63;3.85;;;29.60;99.90;;;;;;4960709;28;90240;-33
2022/08/04 11:16:03;;;;;;;3.85;3.55;;;29.80;99.90;;;;;;4961035;28;89530;-33
2022/08/04 11:18:58;;;;;;;7.57;4.28;;;29.80;99.90;;;;;;4960939;28;89251;-33
2022/08/04 11:21:38;;;;;;;7.53;4.75;;;29.70;99.90;;;;;;4960233;28;88467;-35
2022/08/04 11:24:14;;;;;;;4.47;4.05;;;29.60;99.90;;;;;;4961000;28;90415;-34
2022/08/04 11:26:49;;;;;;;4.23;3.83;;;29.40;99.90;;;;;;4960699;28;89796;-33
2022/08/04 11:29:44;;;;;;;8.68;4.13;;;29.10;99.90;;;;;;4961105;28;89502;-34
2022/08/04 11:32:18;;;;;;;6.45;2.97;;;29.00;99.90;;;;;;4960035;28;88721;-35
2022/08/04 11:34:49;;;;;;;9.38;4.60;;;28.90;99.90;;;;;;4960741;28;90694;-35
2022/08/04 11:37:21;;;;;;;8.77;3.75;;;28.90;99.90;;;;;;4960518;28;89729;-33
2022/08/04 11:39:58;;;;;;;3.22;2.92;;;28.90;99.90;;;;;;4961719;28;89535;-36
2022/08/04 11:42:30;;;;;;;5.22;3.42;;;28.90;99.90;;;;;;4960702;28;88603;-35
2022/08/04 11:45:07;;;;;;;5.53;3.40;;;28.90;99.90;;;;;;4960241;28;91251;-34
2022/08/04 11:47:49;;;;;;;2.63;2.40;;;28.90;99.90;;;;;;4959820;28;89911;-35
2022/08/04 11:50:43;;;;;;;5.50;3.42;;;28.90;99.90;;;;;;4960475;28;90033;-32
2022/08/04 11:53:15;;;;;;;13.57;3.90;;;28.90;99.90;;;;;;4960597;28;89430;-32
2022/08/04 11:55:44;;;;;;;6.18;3.08;;;28.90;99.90;;;;;;4960536;28;90252;-33
2022/08/04 11:58:11;;;;;;;6.93;3.38;;;29.00;99.90;;;;;;4959747;28;91114;-33
2022/08/04 12:00:44;;;;;;;5.40;2.93;;;29.00;99.90;;;;;;4961287;28;91130;-33
2022/08/04 12:03:38;;;;;;;4.20;3.33;;;28.90;99.90;;;;;;4960399;28;87916;-34
2022/08/04 12:06:20;;;;;;;3.30;2.88;;;28.70;99.90;;;;;;4961286;28;91003;-34
2022/08/04 12:09:08;;;;;;;3.35;2.83;;;28.60;99.90;;;;;;4960968;28;89972;-37
2022/08/04 12:11:54;;;;;;;4.13;3.08;;;28.50;99.90;;;;;;4960443;28;89017;-33
2022/08/04 12:14:39;;;;;;;5.53;3.07;;;28.40;99.90;;;;;;4960542;28;88640;-36
2022/08/04 12:17:14;;;;;;;5.57;2.22;;;28.30;99.90;;;;;;4961693;28;90368;-36
2022/08/04 12:19:47;;;;;;;5.30;2.58;;;28.10;99.90;;;;;;4920025;28;89028;-32
2022/08/04 12:22:26;;;;;;;4.90;2.10;;;27.90;99.90;;;;;;4922112;28;90714;-31
2022/08/04 12:25:06;;;;;;;8.57;2.92;;;27.80;99.90;;;;;;4920937;28;90123;-32
2022/08/04 12:27:46;;;;;;;3.63;1.90;;;27.70;99.90;;;;;;4922602;28;92270;-32
2022/08/04 12:30:13;;;;;;;7.60;2.72;;;27.50;99.90;;;;;;4920899;28;89640;-33
2022/08/04 12:32:46;;;;;;;4.45;2.45;;;27.40;99.90;;;;;;4922681;28;90736;-34
2022/08/04 12:35:34;;;;;;;3.30;2.45;;;27.40;99.90;;;;;;4921658;28;88357;-34
2022/08/04 12:38:04;;;;;;;6.47;2.92;;;27.40;99.90;;;;;;4922161;28;90128;-31
2022/08/04 12:40:40;;;;;;;6.95;3.08;;;27.20;99.90;;;;;;4920342;28;91876;-34
2022/08/04 12:43:16;;;;;;;6.55;3.47;;;27.10;99.90;;;;;;4921126;28;89106;-32
2022/08/04 12:45:49;;;;;;;6.18;2.88;;;26.90;99.90;;;;;;4920685;28;89701;-31
2022/08/04 12:48:20;;;;;;;3.63;2.08;;;26.80;99.90;;;;;;4921357;28;90357;-33
2022/08/04 12:50:54;;;;;;;5.93;2.55;;;26.80;99.90;;;;;;4919948;28;89977;-35
2022/08/04 12:53:38;;;;;;;5.15;2.25;;;26.60;99.90;;;;;;4920296;28;90391;-32
2022/08/04 12:56:06;;;;;;;2.65;2.20;;;26.50;99.90;;;;;;4921351;28;87584;-32
2022/08/04 12:58:36;;;;;;;3.22;1.95;;;26.40;99.90;;;;;;4926057;28;90182;-32
2022/08/04 13:01:06;;;;;;;6.72;3.05;;;26.20;99.90;;;;;;4921251;28;89180;-33
2022/08/04 13:04:12;;;;;;;3.70;2.80;;;26.00;99.90;;;;;;4922729;28;88356;-35
2022/08/04 13:06:40;;;;;;;2.97;2.70;;;25.80;99.90;;;;;;4902137;28;88681;-33
2022/08/04 13:09:17;;;;;;;5.50;2.78;;;25.60;99.90;;;;;;4923378;28;89613;-34
2022/08/04 13:12:08;;;;;;;3.22;2.92;;;25.30;99.90;;;;;;4921366;28;89866;-33
2022/08/04 13:14:37;;;;;;;4.35;3.17;;;25.00;99.90;;;;;;4909711;28;89829;-33
2022/08/04 13:17:04;;;;;;;4.50;2.92;;;24.80;99.90;;;;;;4921585;28;89657;-32
2022/08/04 13:19:30;;;;;;;4.07;3.05;;;24.70;99.90;;;;;;4921422;28;90414;-34
2022/08/04 13:21:59;;;;;;;2.83;2.20;;;24.60;99.90;;;;;;4922525;28;89612;-33
2022/08/04 13:24:27;;;;;;;9.02;4.00;;;24.50;99.90;;;;;;4922224;28;89443;-34
2022/08/04 13:26:58;;;;;;;6.40;2.72;;;24.50;99.90;;;;;;4921510;28;90542;-35
2022/08/04 13:29:33;;;;;;;2.70;2.50;;;24.50;99.90;;;;;;4921913;28;90662;-31
2022/08/04 13:32:00;;;;;;;3.70;3.10;;;24.50;99.90;;;;;;4921126;28;89537;-32
2022/08/04 13:34:27;;;;;;;2.60;2.40;;;24.60;99.90;;;;;;4921854;28;89371;-33
2022/08/04 13:36:54;;;;;;;7.75;3.28;;;24.70;99.90;;;;;;4906477;28;88745;-34
2022/08/04 13:39:22;;;;;;;5.83;2.63;;;24.80;99.90;;;;;;4920974;28;90145;-34